createdAt,value
2022-09-12T00:02:14.825Z,98962.03
2022-09-12T00:04:44.133Z,98965.63
2022-09-12T00:07:13.362Z,98965.97
2022-09-12T00:09:43.685Z,98964.75
2022-09-12T00:12:15.503Z,98961.50
2022-09-12T00:14:45.081Z,98951.47
2022-09-12T00:17:15.114Z,98954.63
2022-09-12T00:19:44.973Z,98947.53
2022-09-12T00:22:14.386Z,98942.41
2022-09-12T00:24:43.706Z,98945.78
2022-09-12T00:27:14.428Z,98949.38
2022-09-12T00:29:43.813Z,98943.97
2022-09-12T00:32:14.045Z,98939.50
2022-09-12T00:34:43.539Z,98936.72
2022-09-12T00:37:13.356Z,98931.34
2022-09-12T00:39:42.759Z,98932.41
2022-09-12T00:42:14.540Z,98929.22
2022-09-12T00:44:49.976Z,98936.72
2022-09-12T00:47:23.674Z,98930.81
2022-09-12T00:49:57.114Z,98920.97
2022-09-12T00:52:31.045Z,98930.81
2022-09-12T00:55:07.277Z,98926.06
2022-09-12T00:57:50.352Z,98927.28
2022-09-12T01:00:23.477Z,98930.47
2022-09-12T01:03:00.362Z,98924.75
2022-09-12T01:05:31.078Z,98922.13
2022-09-12T01:08:04.619Z,98922.75
2022-09-12T01:10:37.257Z,98918.88
2022-09-12T01:13:11.214Z,98923.19
2022-09-12T01:15:41.900Z,98916.06
2022-09-12T01:18:21.105Z,98926.34
2022-09-12T01:21:02.410Z,98921.00
2022-09-12T01:24:08.245Z,98914.13
2022-09-12T01:27:17.781Z,98913.69
2022-09-12T01:30:19.619Z,98914.81
2022-09-12T01:32:55.351Z,98914.94
2022-09-12T01:35:32.768Z,98910.59
2022-09-12T01:38:12.935Z,98909.03
2022-09-12T01:40:49.383Z,98910.44
2022-09-12T01:43:25.300Z,98918.53
2022-09-12T01:46:02.722Z,98909.63
2022-09-12T01:48:38.086Z,98913.59
2022-09-12T01:51:14.837Z,98915.00
2022-09-12T01:53:48.365Z,98907.88
2022-09-12T01:56:22.967Z,98911.81
2022-09-12T01:58:57.796Z,98914.19
2022-09-12T02:01:33.310Z,98912.25
2022-09-12T02:04:10.012Z,98908.06
2022-09-12T02:06:44.977Z,98913.75
2022-09-12T02:09:20.955Z,98906.81
2022-09-12T02:11:53.823Z,98910.25
2022-09-12T02:14:28.027Z,98909.53
2022-09-12T02:17:01.611Z,98903.13
2022-09-12T02:19:38.972Z,98902.28
2022-09-12T02:22:14.109Z,98900.94
2022-09-12T02:24:47.671Z,98898.56
2022-09-12T02:27:20.059Z,98897.66
2022-09-12T02:29:50.671Z,98896.63
2022-09-12T02:32:32.960Z,98896.28
2022-09-12T02:35:08.951Z,98897.75
2022-09-12T02:37:56.292Z,98895.47
2022-09-12T02:40:26.711Z,98903.41
2022-09-12T02:42:56.500Z,98898.97
2022-09-12T02:45:25.959Z,98897.41
2022-09-12T02:48:02.142Z,98891.78
2022-09-12T02:50:33.634Z,98900.03
2022-09-12T02:53:05.171Z,98905.25
2022-09-12T02:55:36.210Z,98900.56
2022-09-12T02:58:08.362Z,98900.47
2022-09-12T03:00:46.743Z,98911.53
2022-09-12T03:03:27.759Z,98910.16
2022-09-12T03:06:01.816Z,98907.44
2022-09-12T03:08:56.390Z,98905.50
2022-09-12T03:11:45.376Z,98904.06
2022-09-12T03:14:28.993Z,98906.34
2022-09-12T03:17:09.375Z,98906.69
2022-09-12T03:19:52.727Z,98906.34
2022-09-12T03:22:31.639Z,98901.69
2022-09-12T03:25:08.672Z,98906.78
2022-09-12T03:27:43.468Z,98909.50
2022-09-12T03:30:14.790Z,98913.63
2022-09-12T03:32:46.995Z,98907.66
2022-09-12T03:35:22.861Z,98915.00
2022-09-12T03:37:55.055Z,98905.81
2022-09-12T03:40:25.830Z,98900.59
2022-09-12T03:42:57.653Z,98901.16
2022-09-12T03:45:27.609Z,98898.56
2022-09-12T03:47:58.784Z,98899.66
2022-09-12T03:50:30.142Z,98898.53
2022-09-12T03:53:04.008Z,98896.38
2022-09-12T03:55:34.421Z,98894.41
2022-09-12T03:58:04.717Z,98889.84
2022-09-12T04:00:35.668Z,98883.94
2022-09-12T04:03:06.359Z,98886.31
2022-09-12T04:05:41.203Z,98881.66
2022-09-12T04:08:13.443Z,98884.81
2022-09-12T04:10:44.623Z,98883.16
2022-09-12T04:13:15.847Z,98885.97
2022-09-12T04:15:58.894Z,98882.47
2022-09-12T04:18:30.336Z,98883.06
2022-09-12T04:21:05.682Z,98900.66
2022-09-12T04:23:38.528Z,98890.56
2022-09-12T04:26:10.004Z,98891.19
2022-09-12T04:28:48.073Z,98897.59
2022-09-12T04:31:23.980Z,98895.91
2022-09-12T04:33:59.629Z,98893.53
2022-09-12T04:36:31.367Z,98895.13
2022-09-12T04:39:08.086Z,98890.66
2022-09-12T04:41:42.511Z,98890.31
2022-09-12T04:44:17.451Z,98891.97
2022-09-12T04:46:51.385Z,98889.34
2022-09-12T04:49:24.487Z,98891.28
2022-09-12T04:51:55.110Z,98885.53
2022-09-12T04:54:29.313Z,98890.50
2022-09-12T04:57:08.021Z,98893.13
2022-09-12T04:59:38.268Z,98893.72
2022-09-12T05:02:10.145Z,98890.75
2022-09-12T05:04:40.992Z,98886.69
2022-09-12T05:07:11.027Z,98885.91
2022-09-12T05:09:48.978Z,98895.31
2022-09-12T05:12:20.357Z,98898.56
2022-09-12T05:14:50.185Z,98893.97
2022-09-12T05:17:20.543Z,98892.50
2022-09-12T05:19:51.148Z,98892.16
2022-09-12T05:22:23.526Z,98891.19
2022-09-12T05:24:55.082Z,98891.88
2022-09-12T05:27:32.391Z,98892.25
2022-09-12T05:30:09.389Z,98892.75
2022-09-12T05:32:39.618Z,98895.31
2022-09-12T05:35:09.639Z,98890.72
2022-09-12T05:37:40.325Z,98888.00
2022-09-12T05:40:19.679Z,98891.31
2022-09-12T05:42:49.976Z,98885.75
2022-09-12T05:45:21.599Z,98882.03
2022-09-12T05:47:52.910Z,98880.00
2022-09-12T05:50:28.321Z,98889.34
2022-09-12T05:52:59.749Z,98882.91
2022-09-12T05:55:35.522Z,98885.34
2022-09-12T05:58:07.543Z,98874.38
2022-09-12T06:00:38.428Z,98878.38
2022-09-12T06:03:09.817Z,98876.38
2022-09-12T06:05:39.466Z,98870.06
2022-09-12T06:08:09.320Z,98872.72
2022-09-12T06:10:45.353Z,98873.63
2022-09-12T06:13:16.630Z,98871.31
2022-09-12T06:15:47.043Z,98864.81
2022-09-12T06:18:16.885Z,98863.06
2022-09-12T06:20:47.848Z,98859.63
2022-09-12T06:23:17.790Z,98866.63
2022-09-12T06:25:56.747Z,98864.06
2022-09-12T06:28:26.233Z,98868.50
2022-09-12T06:31:04.722Z,98870.66
2022-09-12T06:33:37.157Z,98864.78
2022-09-12T06:36:13.584Z,98868.34
2022-09-12T06:38:44.441Z,98877.69
2022-09-12T06:41:18.592Z,98870.66
2022-09-12T06:43:48.324Z,98876.28
2022-09-12T06:46:19.797Z,98871.91
2022-09-12T06:48:50.927Z,98867.94
2022-09-12T06:51:21.964Z,98875.91
2022-09-12T06:53:54.706Z,98872.75
2022-09-12T06:56:30.113Z,98869.09
2022-09-12T06:59:04.089Z,98876.16
2022-09-12T07:01:35.131Z,98871.19
2022-09-12T07:04:07.516Z,98876.56
2022-09-12T07:06:40.758Z,98881.72
2022-09-12T07:09:13.175Z,98879.19
2022-09-12T07:11:45.247Z,98892.66
2022-09-12T07:14:17.136Z,98886.47
2022-09-12T07:16:46.947Z,98882.72
2022-09-12T07:19:18.011Z,98895.81
2022-09-12T07:21:48.668Z,98892.72
2022-09-12T07:24:21.031Z,98887.94
2022-09-12T07:26:54.775Z,98890.81
2022-09-12T07:29:36.534Z,98886.94
2022-09-12T07:32:08.669Z,98886.28
2022-09-12T07:34:43.155Z,98891.16
2022-09-12T07:37:15.261Z,98892.09
2022-09-12T07:39:47.887Z,98895.88
2022-09-12T07:42:19.227Z,98896.50
2022-09-12T07:44:51.638Z,98897.16
2022-09-12T07:47:23.814Z,98899.41
2022-09-12T07:49:56.395Z,98902.47
2022-09-12T07:52:26.913Z,98903.03
2022-09-12T07:54:58.891Z,98902.47
2022-09-12T07:57:32.923Z,98907.69
2022-09-12T08:00:07.776Z,98900.31
2022-09-12T08:02:42.966Z,98903.38
2022-09-12T08:05:14.472Z,98907.91
2022-09-12T08:07:44.494Z,98894.03
2022-09-12T08:10:16.798Z,98902.44
2022-09-12T08:12:52.560Z,98904.03
2022-09-12T08:15:24.564Z,98906.19
2022-09-12T08:17:55.211Z,98900.38
2022-09-12T08:20:51.700Z,98908.69
2022-09-12T08:23:26.873Z,98907.81
2022-09-12T08:26:05.309Z,98902.28
2022-09-12T08:28:42.468Z,98897.63
2022-09-12T08:31:16.649Z,98896.66
2022-09-12T08:33:47.273Z,98904.28
2022-09-12T08:36:20.423Z,98901.84
2022-09-12T08:38:57.421Z,98903.44
2022-09-12T08:41:35.299Z,98895.31
2022-09-12T08:44:26.997Z,98894.50
2022-09-12T08:47:22.712Z,98895.44
2022-09-12T08:50:09.137Z,98894.66
2022-09-12T08:52:58.754Z,98892.63
2022-09-12T08:55:35.360Z,98883.63
2022-09-12T08:58:16.722Z,98884.81
2022-09-12T09:01:02.028Z,98893.41
2022-09-12T09:04:16.409Z,98885.66
2022-09-12T09:07:05.839Z,98884.53
2022-09-12T09:09:51.502Z,98887.25
2022-09-12T09:12:30.104Z,98895.94
2022-09-12T09:15:33.684Z,98881.94
2022-09-12T09:18:12.396Z,98885.53
2022-09-12T09:20:47.558Z,98888.28
2022-09-12T09:23:25.076Z,98886.53
2022-09-12T09:26:02.523Z,98884.38
2022-09-12T09:28:40.208Z,98879.69
2022-09-12T09:31:16.650Z,98886.50
2022-09-12T09:33:52.256Z,98888.00
2022-09-12T09:36:40.646Z,98886.81
2022-09-12T09:40:03.680Z,98896.00
2022-09-12T09:42:44.235Z,98891.19
2022-09-12T09:48:27.271Z,98888.53
2022-09-12T09:51:02.444Z,98896.41
2022-09-12T09:53:57.435Z,98901.56
2022-09-12T09:56:35.748Z,98899.53
2022-09-12T09:59:14.219Z,98894.72
2022-09-12T10:01:49.564Z,98891.66
2022-09-12T10:04:32.801Z,98904.31
2022-09-12T10:07:11.101Z,98896.78
2022-09-12T10:12:31.779Z,98896.47
2022-09-12T10:15:04.521Z,98894.91
2022-09-12T10:17:46.608Z,98883.91
2022-09-12T10:20:34.796Z,98891.78
2022-09-12T10:23:26.112Z,98884.72
2022-09-12T10:26:05.782Z,98886.28
2022-09-12T10:28:40.078Z,98887.84
2022-09-12T10:31:15.806Z,98891.00
2022-09-12T10:33:52.979Z,98884.69
2022-09-12T10:36:24.136Z,98880.78
2022-09-12T10:39:02.830Z,98875.28
2022-09-12T10:41:46.795Z,98881.50
2022-09-12T10:44:30.922Z,98878.34
2022-09-12T10:47:24.669Z,98882.63
2022-09-12T10:49:55.270Z,98885.09
2022-09-12T10:52:45.694Z,98885.09
2022-09-12T10:55:36.408Z,98883.84
2022-09-12T10:58:30.796Z,98878.63
2022-09-12T11:01:13.854Z,98875.22
2022-09-12T11:04:07.392Z,98878.88
2022-09-12T11:06:50.890Z,98874.81
2022-09-12T11:09:45.076Z,98882.91
2022-09-12T11:12:38.256Z,98875.72
2022-09-12T11:15:41.347Z,98874.44
2022-09-12T11:18:40.573Z,98869.50
2022-09-12T11:21:33.781Z,98873.34
2022-09-12T11:24:18.672Z,98867.50
2022-09-12T11:27:13.468Z,98870.03
2022-09-12T11:29:54.820Z,98867.97
2022-09-12T11:33:14.845Z,98867.56
2022-09-12T11:35:55.263Z,98864.72
2022-09-12T11:38:49.701Z,98864.00
2022-09-12T11:41:24.226Z,98863.63
2022-09-12T11:44:03.868Z,98869.66
2022-09-12T11:46:51.541Z,98865.06
2022-09-12T11:49:35.277Z,98866.81
2022-09-12T11:52:17.709Z,98876.00
2022-09-12T11:54:57.109Z,98864.31
2022-09-12T11:57:37.901Z,98872.53
2022-09-12T12:00:17.972Z,98865.47
2022-09-12T12:03:17.533Z,98864.66
2022-09-12T12:06:07.192Z,98857.16
2022-09-12T12:08:46.247Z,98865.03
2022-09-12T12:11:30.364Z,98858.75
2022-09-12T12:14:06.187Z,98850.91
2022-09-12T12:16:44.557Z,98853.66
2022-09-12T12:19:40.756Z,98845.38
2022-09-12T12:22:20.518Z,98843.78
2022-09-12T12:25:08.207Z,98844.06
2022-09-12T12:28:06.611Z,98839.28
2022-09-12T12:31:26.316Z,98838.25
2022-09-12T12:34:04.526Z,98836.97
2022-09-12T12:37:26.877Z,98838.13
2022-09-12T12:40:12.795Z,98837.47
2022-09-12T12:43:24.158Z,98831.94
2022-09-12T12:46:16.616Z,98826.75
2022-09-12T12:49:22.406Z,98832.72
2022-09-12T12:52:22.723Z,98827.78
2022-09-12T12:55:01.351Z,98824.28
2022-09-12T12:57:50.800Z,98829.56
2022-09-12T13:00:39.700Z,98833.78
2022-09-12T13:03:36.133Z,98831.03
2022-09-12T13:06:21.436Z,98831.09
2022-09-12T13:09:05.672Z,98830.44
2022-09-12T13:11:38.921Z,98833.22
2022-09-12T13:14:39.873Z,98834.00
2022-09-12T13:17:18.226Z,98835.94
2022-09-12T13:20:00.653Z,98833.59
2022-09-12T13:22:45.990Z,98835.22
2022-09-12T13:25:31.633Z,98834.81
2022-09-12T13:28:10.882Z,98831.94
2022-09-12T13:30:45.623Z,98840.88
2022-09-12T13:33:25.368Z,98833.88
2022-09-12T13:36:20.934Z,98836.72
2022-09-12T13:39:14.522Z,98839.06
2022-09-12T13:42:14.065Z,98836.31
2022-09-12T13:44:52.119Z,98828.44
2022-09-12T13:47:30.740Z,98822.22
2022-09-12T13:50:12.056Z,98822.94
2022-09-12T13:52:49.524Z,98824.47
2022-09-12T13:55:37.778Z,98814.69
2022-09-12T13:58:19.240Z,98816.31
2022-09-12T14:01:06.008Z,98815.91
2022-09-12T14:04:05.695Z,98818.69
2022-09-12T14:06:51.102Z,98823.41
2022-09-12T14:09:29.032Z,98816.72
2022-09-12T14:12:20.095Z,98821.06
2022-09-12T14:14:55.671Z,98820.25
2022-09-12T14:17:37.589Z,98822.56
2022-09-12T14:20:18.942Z,98828.06
2022-09-12T14:22:52.678Z,98828.78
2022-09-12T14:25:32.380Z,98825.63
2022-09-12T14:28:05.393Z,98825.94
2022-09-12T14:31:07.928Z,98826.31
2022-09-12T14:33:53.572Z,98835.59
2022-09-12T14:36:32.526Z,98830.44
2022-09-12T14:39:20.642Z,98832.75
2022-09-12T14:41:53.536Z,98834.16
2022-09-12T14:44:31.763Z,98830.66
2022-09-12T14:47:19.239Z,98836.56
2022-09-12T14:49:54.990Z,98835.53
2022-09-12T14:52:36.879Z,98836.63
2022-09-12T14:55:24.684Z,98832.41
2022-09-12T15:00:53.193Z,98836.78
2022-09-12T15:03:49.327Z,98839.66
2022-09-12T15:06:27.801Z,98830.78
2022-09-12T15:09:04.871Z,98831.88
2022-09-12T15:11:36.662Z,98839.22
2022-09-12T15:14:15.261Z,98836.09
2022-09-12T15:16:45.982Z,98839.88
2022-09-12T15:19:29.295Z,98837.28
2022-09-12T15:22:03.849Z,98840.22
2022-09-12T15:24:34.070Z,98843.13
2022-09-12T15:27:08.953Z,98851.25
2022-09-12T15:29:42.993Z,98850.75
2022-09-12T15:32:26.720Z,98852.72
2022-09-12T15:35:03.146Z,98855.59
2022-09-12T15:37:35.755Z,98860.84
2022-09-12T15:40:11.146Z,98860.72
2022-09-12T15:42:46.434Z,98857.78
2022-09-12T15:45:31.765Z,98857.00
2022-09-12T15:48:04.216Z,98864.81
2022-09-12T15:50:47.656Z,98853.94
2022-09-12T15:53:31.688Z,98855.78
2022-09-12T15:56:06.510Z,98863.84
2022-09-12T15:58:57.191Z,98869.63
2022-09-12T16:01:35.604Z,98862.47
2022-09-12T16:04:20.651Z,98869.88
2022-09-12T16:07:01.106Z,98869.09
2022-09-12T16:09:34.861Z,98866.72
2022-09-12T16:12:14.005Z,98873.00
2022-09-12T16:14:49.100Z,98867.13
2022-09-12T16:17:30.270Z,98870.69
2022-09-12T16:20:01.684Z,98868.25
2022-09-12T16:22:38.366Z,98866.00
2022-09-12T16:25:12.083Z,98871.81
2022-09-12T16:30:21.910Z,98877.59
2022-09-12T16:32:55.169Z,98874.19
2022-09-12T16:35:31.561Z,98874.56
2022-09-12T16:38:06.813Z,98878.50
2022-09-12T16:40:45.256Z,98869.88
2022-09-12T16:43:17.541Z,98877.66
2022-09-12T16:45:48.513Z,98871.34
2022-09-12T16:48:27.705Z,98872.66
2022-09-12T16:51:02.312Z,98880.38
2022-09-12T16:53:37.750Z,98881.22
2022-09-12T16:56:09.400Z,98883.97
2022-09-12T16:58:42.326Z,98887.56
2022-09-12T17:01:16.111Z,98890.72
2022-09-12T17:03:46.432Z,98892.22
2022-09-12T17:06:18.330Z,98895.81
2022-09-12T17:08:57.142Z,98897.94
2022-09-12T17:11:32.030Z,98895.50
2022-09-12T17:14:08.208Z,98897.03
2022-09-12T17:16:40.396Z,98889.63
2022-09-12T17:19:15.355Z,98888.34
2022-09-12T17:21:48.972Z,98898.53
2022-09-12T17:24:30.336Z,98891.97
2022-09-12T17:27:00.979Z,98891.09
2022-09-12T17:29:31.934Z,98889.06
2022-09-12T17:32:01.769Z,98892.91
2022-09-12T17:34:34.782Z,98887.75
2022-09-12T17:37:07.574Z,98890.78
2022-09-12T17:39:39.130Z,98887.69
2022-09-12T17:42:10.325Z,98897.56
2022-09-12T17:44:42.953Z,98889.00
2022-09-12T17:47:14.145Z,98889.53
2022-09-12T17:49:45.145Z,98897.44
2022-09-12T17:52:28.504Z,98889.44
2022-09-12T17:55:01.120Z,98898.28
2022-09-12T17:57:34.854Z,98888.50
2022-09-12T18:00:05.761Z,98897.47
2022-09-12T18:02:43.174Z,98891.28
2022-09-12T18:05:55.306Z,98889.72
2022-09-12T18:08:29.359Z,98890.97
2022-09-12T18:11:09.021Z,98894.53
2022-09-12T18:13:41.047Z,98884.91
2022-09-12T18:16:16.369Z,98888.03
2022-09-12T18:18:51.444Z,98893.53
2022-09-12T18:21:22.305Z,98889.22
2022-09-12T18:23:53.127Z,98885.72
2022-09-12T18:26:24.981Z,98890.78
2022-09-12T18:28:59.179Z,98890.38
2022-09-12T18:31:31.669Z,98893.97
2022-09-12T18:34:04.221Z,98886.53
2022-09-12T18:36:36.690Z,98895.41
2022-09-12T18:39:08.179Z,98886.06
2022-09-12T18:44:14.960Z,98891.66
2022-09-12T18:46:45.883Z,98896.16
2022-09-12T18:49:17.330Z,98895.34
2022-09-12T18:51:47.583Z,98889.97
2022-09-12T18:54:18.085Z,98893.84
2022-09-12T18:56:50.337Z,98887.97
2022-09-12T18:59:37.784Z,98881.44
2022-09-12T19:02:11.628Z,98890.06
2022-09-12T19:04:43.638Z,98885.31
2022-09-12T19:07:18.679Z,98889.22
2022-09-12T19:09:48.920Z,98887.22
2022-09-12T19:12:23.591Z,98887.56
2022-09-12T19:14:56.067Z,98896.25
2022-09-12T19:17:26.479Z,98898.91
2022-09-12T19:19:59.812Z,98898.09
2022-09-12T19:22:30.692Z,98894.16
2022-09-12T19:25:04.243Z,98897.31
2022-09-12T19:27:35.760Z,98894.16
2022-09-12T19:30:07.549Z,98894.56
2022-09-12T19:35:13.644Z,98886.09
2022-09-12T19:37:44.102Z,98888.50
2022-09-12T19:40:16.277Z,98896.03
2022-09-12T19:42:49.110Z,98893.72
2022-09-12T19:45:20.334Z,98894.06
2022-09-12T19:47:52.260Z,98891.66
2022-09-12T19:50:24.494Z,98886.22
2022-09-12T19:52:56.050Z,98891.91
2022-09-12T19:55:29.401Z,98886.53
2022-09-12T19:58:00.121Z,98881.06
2022-09-12T20:00:34.441Z,98877.69
2022-09-12T20:03:06.844Z,98878.84
2022-09-12T20:05:42.607Z,98881.59
2022-09-12T20:08:17.484Z,98878.88
2022-09-12T20:11:00.299Z,98883.41
2022-09-12T20:13:31.841Z,98876.66
2022-09-12T20:16:12.252Z,98883.56
2022-09-12T20:18:42.411Z,98878.69
2022-09-12T20:21:14.319Z,98884.22
2022-09-12T20:23:44.428Z,98881.47
2022-09-12T20:26:14.427Z,98874.34
2022-09-12T20:28:44.167Z,98872.44
2022-09-12T20:31:17.453Z,98873.28
2022-09-12T20:33:51.751Z,98875.16
2022-09-12T20:36:23.179Z,98876.25
2022-09-12T20:38:54.240Z,98876.31
2022-09-12T20:41:26.554Z,98874.69
2022-09-12T20:43:58.428Z,98869.63
2022-09-12T20:46:30.238Z,98865.66
2022-09-12T20:49:00.494Z,98870.47
2022-09-12T20:51:30.545Z,98866.28
2022-09-12T20:54:03.389Z,98868.28
2022-09-12T20:56:37.401Z,98856.63
2022-09-12T20:59:07.643Z,98865.56
2022-09-12T21:01:39.444Z,98859.78
2022-09-12T21:04:14.395Z,98861.66
2022-09-12T21:06:45.109Z,98860.09
2022-09-12T21:09:15.105Z,98864.31
2022-09-12T21:11:46.883Z,98866.13
2022-09-12T21:14:16.619Z,98866.88
2022-09-12T21:16:47.294Z,98856.50
2022-09-12T21:19:17.163Z,98856.94
2022-09-12T21:21:47.858Z,98859.28
2022-09-12T21:24:17.311Z,98857.22
2022-09-12T21:26:47.586Z,98859.69
2022-09-12T21:29:16.957Z,98861.94
2022-09-12T21:31:48.117Z,98851.94
2022-09-12T21:34:22.087Z,98856.28
2022-09-12T21:36:52.033Z,98847.22
2022-09-12T21:39:21.969Z,98853.47
2022-09-12T21:41:51.492Z,98845.69
2022-09-12T21:44:21.297Z,98843.38
2022-09-12T21:46:53.072Z,98841.16
2022-09-12T21:49:23.058Z,98833.69
2022-09-12T21:51:53.497Z,98840.72
2022-09-12T21:54:24.203Z,98837.28
2022-09-12T21:56:56.103Z,98824.75
2022-09-12T21:59:26.297Z,98825.53
2022-09-12T22:01:57.585Z,98827.97
2022-09-12T22:04:27.805Z,98822.44
2022-09-12T22:06:57.713Z,98827.13
2022-09-12T22:09:28.115Z,98823.97
2022-09-12T22:11:58.424Z,98818.22
2022-09-12T22:14:27.474Z,98821.25
2022-09-12T22:16:59.009Z,98823.69
2022-09-12T22:19:28.069Z,98815.56
2022-09-12T22:22:14.951Z,98816.00
2022-09-12T22:24:47.702Z,98807.72
2022-09-12T22:27:17.348Z,98816.56
2022-09-12T22:29:47.294Z,98818.88
2022-09-12T22:32:19.932Z,98811.88
2022-09-12T22:34:50.102Z,98820.75
2022-09-12T22:37:19.636Z,98817.09
2022-09-12T22:39:50.499Z,98814.81
2022-09-12T22:42:19.494Z,98820.94
2022-09-12T22:44:49.545Z,98811.22
2022-09-12T22:47:21.206Z,98818.69
2022-09-12T22:49:51.658Z,98813.59
2022-09-12T22:52:20.787Z,98816.25
2022-09-12T22:54:50.440Z,98810.38
2022-09-12T22:57:21.273Z,98809.22
2022-09-12T22:59:51.221Z,98799.88
2022-09-12T23:02:21.513Z,98801.84
2022-09-12T23:04:52.338Z,98805.34
2022-09-12T23:07:21.625Z,98796.38
2022-09-12T23:09:51.603Z,98807.63
2022-09-12T23:12:20.953Z,98804.06
2022-09-12T23:14:50.454Z,98806.78
2022-09-12T23:17:21.097Z,98808.34
2022-09-12T23:19:53.038Z,98805.97
2022-09-12T23:22:22.843Z,98799.66
2022-09-12T23:24:52.107Z,98802.34
2022-09-12T23:27:21.724Z,98796.88
2022-09-12T23:29:52.971Z,98801.84
2022-09-12T23:34:53.370Z,98785.47
2022-09-12T23:37:22.572Z,98786.91
2022-09-12T23:39:52.348Z,98786.13
2022-09-12T23:42:23.088Z,98783.75
2022-09-12T23:44:52.467Z,98782.66
2022-09-12T23:47:22.829Z,98782.25
2022-09-12T23:49:52.649Z,98782.47
2022-09-12T23:52:23.641Z,98787.31
2022-09-12T23:54:53.962Z,98785.06
2022-09-12T23:57:23.515Z,98779.72
2022-09-12T23:59:53.937Z,98778.25
